首页
METAR-TAF:

METAR-TAF

机场 :

霍奎厄姆, 华盛顿, 美国

纬度: 46-58-16N, 经度: 123-55-12W, 海拔: 4米

当前天气观测

该预报发布于52分钟前的16:53 UTC
风速3节,风向
温度 16°C
湿度 88%
气压 1019 hPa
能見度: 16.1公里
阴天层高于1000英尺

METAR: KHQM 211653Z AUTO 08003KT 10SM OVC010 16/14 A3009 RMK AO2 RAE01 SLP191 P0000 T01560139

时间: 10:45 (17:45 UTC)

预报

该预报发布于20分钟前的17:25 UTC
预报有效从21日的 18点(UTC)到 22日的 18点(UTC)
风速6节,风向多变
能見度: 10公里
多云层高于1000英尺
阴天层高于10000英尺
附近有阵雨
从 21日的 2000点(UTC)
风速14节,风向西,有时为22节阵风
能見度: 10公里
散云层高于2000英尺
散云层高于12000英尺
从 22日的 0300点(UTC)
风速12节,风向西,有时为20节阵风
能見度: 10公里
阴天层高于1500英尺
从 22日的 0800点(UTC)
风速10节,风向西
能見度: 10公里
阴天层高于1200英尺
从 22日的 1000点(UTC)
风速10节,风向西转西北
能見度: 10公里
阴天层高于800英尺

TAF: KHQM 211725Z 2118/2218 VRB06KT P6SM VCSH BKN010 OVC100 FM212000 28014G22KT P6SM SCT020 SCT120 FM220300 28012G20KT P6SM OVC015 FM220800 28010KT P6SM OVC012 FM221000 29010KT P6SM OVC008

超过4000个机场的气象观测和天气预报(METAR&TAF报告)。

可查询的气象台以黄色和红色小点在地图上表示。

将鼠标移到小点上方,可查看气象台名称。

然后点击查看天气观测和预报。

如需切换地图:点击带黑十字的绿色按钮放大地图;点击带横线的绿色按钮缩小地图;或者点击绿色箭头查看邻近地区的地图。


METAR-TAF: